createdAt,value
2018-09-28T00:02:18.333Z,5.77
2018-09-28T00:04:46.759Z,5.60
2018-09-28T00:07:15.596Z,4.97
2018-09-28T00:09:44.490Z,5.80
2018-09-28T00:12:13.408Z,6.27
2018-09-28T00:14:42.301Z,4.83
2018-09-28T00:17:10.940Z,3.50
2018-09-28T00:19:39.311Z,4.23
2018-09-28T00:22:07.857Z,3.53
2018-09-28T00:24:36.741Z,6.87
2018-09-28T00:27:05.292Z,4.90
2018-09-28T00:29:33.709Z,5.33
2018-09-28T00:32:02.587Z,5.27
2018-09-28T00:34:31.332Z,3.00
2018-09-28T00:37:00.071Z,3.43
2018-09-28T00:39:28.573Z,3.47
2018-09-28T00:41:57.051Z,4.13
2018-09-28T00:44:25.885Z,5.47
2018-09-28T00:46:54.857Z,3.83
2018-09-28T00:49:23.539Z,3.33
2018-09-28T00:51:52.454Z,3.40
2018-09-28T00:54:20.911Z,5.37
2018-09-28T00:56:49.339Z,3.80
2018-09-28T00:59:18.026Z,2.47
2018-09-28T01:01:46.841Z,3.03
2018-09-28T01:04:15.668Z,4.97
2018-09-28T01:06:44.464Z,4.40
2018-09-28T01:09:14.721Z,3.43
2018-09-28T01:11:43.816Z,2.20
2018-09-28T01:14:12.805Z,4.90
2018-09-28T01:16:41.329Z,2.40
2018-09-28T01:19:10.074Z,2.50
2018-09-28T01:21:38.653Z,3.37
2018-09-28T01:24:07.148Z,5.47
2018-09-28T01:26:35.766Z,3.73
2018-09-28T01:29:04.359Z,5.00
2018-09-28T01:31:32.784Z,2.93
2018-09-28T01:34:01.514Z,3.57
2018-09-28T01:36:30.318Z,3.90
2018-09-28T01:38:58.916Z,5.77
2018-09-28T01:41:27.408Z,4.57
2018-09-28T01:43:55.776Z,2.57
2018-09-28T01:46:24.263Z,3.83
2018-09-28T01:48:52.831Z,4.30
2018-09-28T01:51:21.695Z,5.87
2018-09-28T01:53:50.073Z,5.13
2018-09-28T01:56:18.506Z,4.03
2018-09-28T01:58:46.953Z,4.60
2018-09-28T02:01:15.722Z,4.33
2018-09-28T02:03:44.438Z,2.60
2018-09-28T02:06:13.185Z,3.90
2018-09-28T02:08:41.641Z,3.47
2018-09-28T02:11:10.196Z,5.83
2018-09-28T02:13:38.712Z,5.57
2018-09-28T02:16:07.458Z,4.00
2018-09-28T02:18:35.940Z,4.67
2018-09-28T02:21:04.384Z,3.60
2018-09-28T02:23:32.762Z,4.10
2018-09-28T02:26:01.180Z,6.40
2018-09-28T02:28:29.750Z,3.93
2018-09-28T02:30:58.169Z,4.70
2018-09-28T02:33:26.826Z,3.67
2018-09-28T02:35:55.642Z,3.27
2018-09-28T02:38:24.036Z,3.77
2018-09-28T02:40:52.517Z,3.23
2018-09-28T02:43:21.560Z,5.67
2018-09-28T02:45:50.336Z,4.40
2018-09-28T02:48:19.293Z,3.83
2018-09-28T02:50:48.170Z,3.23
2018-09-28T02:53:18.130Z,3.73
2018-09-28T02:55:48.360Z,3.93
2018-09-28T02:58:16.860Z,6.13
2018-09-28T03:00:46.488Z,6.53
2018-09-28T03:03:15.040Z,4.63
2018-09-28T03:05:43.446Z,4.93
2018-09-28T03:08:12.101Z,3.37
2018-09-28T03:10:40.859Z,4.83
2018-09-28T03:13:09.679Z,5.10
2018-09-28T03:15:38.190Z,5.43
2018-09-28T03:18:07.446Z,6.77
2018-09-28T03:20:35.980Z,5.17
2018-09-28T03:23:04.913Z,5.27
2018-09-28T03:25:33.745Z,6.33
2018-09-28T03:28:02.512Z,4.53
2018-09-28T03:30:31.279Z,4.97
2018-09-28T03:33:00.101Z,5.43
2018-09-28T03:35:29.023Z,3.50
2018-09-28T03:37:57.731Z,8.13
2018-09-28T03:40:26.569Z,5.17
2018-09-28T03:42:54.956Z,4.33
2018-09-28T03:45:23.735Z,5.23
2018-09-28T03:47:52.703Z,4.90
2018-09-28T03:50:21.440Z,4.50
2018-09-28T03:52:50.299Z,5.83
2018-09-28T03:55:18.808Z,4.63
2018-09-28T03:57:47.736Z,5.43
2018-09-28T04:00:16.342Z,6.60
2018-09-28T04:02:45.279Z,4.40
2018-09-28T04:05:14.160Z,7.70
2018-09-28T04:07:42.875Z,8.30
2018-09-28T04:10:11.728Z,9.77
2018-09-28T04:12:40.129Z,6.83
2018-09-28T04:15:09.036Z,5.97
2018-09-28T04:17:37.637Z,5.23
2018-09-28T04:20:06.597Z,6.63
2018-09-28T04:22:35.439Z,8.10
2018-09-28T04:25:04.565Z,7.97
2018-09-28T04:27:33.137Z,6.13
2018-09-28T04:30:01.989Z,8.13
2018-09-28T04:32:36.979Z,4.70
2018-09-28T04:35:05.499Z,6.77
2018-09-28T04:37:34.198Z,11.23
2018-09-28T04:40:03.885Z,12.97
2018-09-28T04:42:32.596Z,8.45
2018-09-28T04:45:01.507Z,8.03
2018-09-28T04:47:30.268Z,10.37
2018-09-28T04:49:59.056Z,8.57
2018-09-28T04:52:27.852Z,10.90
2018-09-28T04:54:56.718Z,10.60
2018-09-28T04:57:25.426Z,16.10
2018-09-28T04:59:54.085Z,11.03
2018-09-28T05:02:29.551Z,8.43
2018-09-28T05:04:58.240Z,9.50
2018-09-28T05:07:27.072Z,12.47
2018-09-28T05:09:55.913Z,10.13
2018-09-28T05:12:24.680Z,11.60
2018-09-28T05:14:53.599Z,12.37
2018-09-28T05:17:22.395Z,14.80
2018-09-28T05:19:51.194Z,13.13
2018-09-28T05:22:20.159Z,12.57
2018-09-28T05:24:49.025Z,13.07
2018-09-28T05:27:17.935Z,10.90
2018-09-28T05:33:36.589Z,16.03
2018-09-28T05:36:05.566Z,25.67
2018-09-28T05:38:34.307Z,24.37
2018-09-28T05:41:03.065Z,24.77
2018-09-28T05:43:31.835Z,24.83
2018-09-28T05:46:00.453Z,29.73
2018-09-28T05:48:29.256Z,24.87
2018-09-28T05:50:58.232Z,33.37
2018-09-28T05:53:27.004Z,29.07
2018-09-28T05:55:55.425Z,28.67
2018-09-28T05:58:29.621Z,28.47
2018-09-28T06:01:03.743Z,32.00
2018-09-28T06:03:32.875Z,36.03
2018-09-28T06:06:02.819Z,39.90
2018-09-28T06:08:32.240Z,35.27
2018-09-28T06:11:01.039Z,35.33
2018-09-28T06:13:29.629Z,34.70
2018-09-28T06:15:58.273Z,34.37
2018-09-28T06:18:27.076Z,50.17
2018-09-28T06:20:55.834Z,40.83
2018-09-28T06:23:24.742Z,35.60
2018-09-28T06:25:53.550Z,35.60
2018-09-28T06:28:22.243Z,31.47
2018-09-28T06:30:51.023Z,30.83
2018-09-28T06:33:19.537Z,25.93
2018-09-28T06:35:48.359Z,24.63
2018-09-28T06:38:17.341Z,23.03
2018-09-28T06:40:46.116Z,20.20
2018-09-28T06:43:14.891Z,24.40
2018-09-28T06:45:43.795Z,23.03
2018-09-28T06:48:12.666Z,20.47
2018-09-28T06:50:41.411Z,19.97
2018-09-28T06:53:10.217Z,18.53
2018-09-28T06:55:39.109Z,33.60
2018-09-28T06:58:07.896Z,24.20
2018-09-28T07:00:36.625Z,25.33
2018-09-28T07:03:05.568Z,26.73
2018-09-28T07:05:34.609Z,23.83
2018-09-28T07:08:03.152Z,27.03
2018-09-28T07:10:31.635Z,26.17
2018-09-28T07:13:00.343Z,27.40
2018-09-28T07:15:29.268Z,23.40
2018-09-28T07:17:58.207Z,20.63
2018-09-28T07:20:27.195Z,20.37
2018-09-28T07:22:55.848Z,15.58
2018-09-28T07:25:24.553Z,15.37
2018-09-28T07:27:53.310Z,12.88
2018-09-28T07:30:22.362Z,16.80
2018-09-28T07:32:51.186Z,16.65
2018-09-28T07:35:19.907Z,11.88
2018-09-28T07:37:48.604Z,16.10
2018-09-28T07:40:17.519Z,13.95
2018-09-28T07:42:46.208Z,11.75
2018-09-28T07:45:15.029Z,14.40
2018-09-28T07:47:43.761Z,14.25
2018-09-28T07:50:12.621Z,9.55
2018-09-28T07:52:41.518Z,11.18
2018-09-28T07:55:10.808Z,10.93
2018-09-28T07:57:39.667Z,10.83
2018-09-28T08:00:08.517Z,11.93
2018-09-28T08:02:37.315Z,8.40
2018-09-28T08:05:06.613Z,7.67
2018-09-28T08:07:35.277Z,8.30
2018-09-28T08:10:04.165Z,10.97
2018-09-28T08:12:33.156Z,11.53
2018-09-28T08:15:01.864Z,11.30
2018-09-28T08:17:30.811Z,9.13
2018-09-28T08:20:00.131Z,6.33
2018-09-28T08:22:29.109Z,5.50
2018-09-28T08:24:57.985Z,4.90
2018-09-28T08:27:26.804Z,5.40
2018-09-28T08:29:55.565Z,7.13
2018-09-28T08:32:24.321Z,8.00
2018-09-28T08:34:53.178Z,6.10
2018-09-28T08:37:22.101Z,8.70
2018-09-28T08:39:50.950Z,8.60
2018-09-28T08:42:19.805Z,7.20
2018-09-28T08:44:48.711Z,4.50
2018-09-28T08:47:17.518Z,4.93
2018-09-28T08:49:46.324Z,14.77
2018-09-28T08:52:15.121Z,5.33
2018-09-28T08:54:43.957Z,3.73
2018-09-28T08:57:12.711Z,7.23
2018-09-28T08:59:41.442Z,6.53
2018-09-28T09:02:10.501Z,6.60
2018-09-28T09:04:39.156Z,6.50
2018-09-28T09:07:08.355Z,5.67
2018-09-28T09:09:37.164Z,5.53
2018-09-28T09:12:05.877Z,6.43
2018-09-28T09:14:34.791Z,4.17
2018-09-28T09:17:03.588Z,6.47
2018-09-28T09:19:32.435Z,7.67
2018-09-28T09:22:01.251Z,5.03
2018-09-28T09:24:35.474Z,5.73
2018-09-28T09:29:58.977Z,4.00
2018-09-28T09:32:27.616Z,14.23
2018-09-28T09:34:56.320Z,5.13
2018-09-28T09:37:24.972Z,10.43
2018-09-28T09:39:53.864Z,12.30
2018-09-28T09:42:23.053Z,7.83
2018-09-28T09:44:51.744Z,9.23
2018-09-28T09:47:20.552Z,7.87
2018-09-28T09:49:49.339Z,7.70
2018-09-28T09:52:18.129Z,6.03
2018-09-28T09:54:46.913Z,6.53
2018-09-28T09:57:15.637Z,4.60
2018-09-28T09:59:44.429Z,4.87
2018-09-28T10:03:22.729Z,6.97
2018-09-28T10:05:51.477Z,3.90
2018-09-28T10:08:20.452Z,7.53
2018-09-28T10:10:49.215Z,4.37
2018-09-28T10:13:18.033Z,8.57
2018-09-28T10:15:47.002Z,5.07
2018-09-28T10:18:15.758Z,14.97
2018-09-28T10:20:44.489Z,7.57
2018-09-28T10:23:13.488Z,7.83
2018-09-28T10:25:42.145Z,24.60
2018-09-28T10:28:11.112Z,9.25
2018-09-28T10:30:39.684Z,6.45
2018-09-28T10:33:08.480Z,24.45
2018-09-28T10:35:37.396Z,4.97
2018-09-28T10:38:06.232Z,6.22
2018-09-28T10:40:35.139Z,15.90
2018-09-28T10:43:03.838Z,10.08
2018-09-28T10:45:32.637Z,7.97
2018-09-28T10:48:01.367Z,11.90
2018-09-28T10:50:30.242Z,8.88
2018-09-28T10:52:58.725Z,7.28
2018-09-28T10:55:27.544Z,14.45
2018-09-28T10:57:56.345Z,12.25
2018-09-28T11:00:25.211Z,9.90
2018-09-28T11:02:53.955Z,5.40
2018-09-28T11:05:22.624Z,5.40
2018-09-28T11:07:51.333Z,8.03
2018-09-28T11:10:20.224Z,6.20
2018-09-28T11:12:49.092Z,3.75
2018-09-28T11:15:17.858Z,4.70
2018-09-28T11:17:46.527Z,5.15
2018-09-28T11:20:15.187Z,8.83
2018-09-28T11:22:43.736Z,4.87
2018-09-28T11:25:12.712Z,3.75
2018-09-28T11:27:41.444Z,5.67
2018-09-28T11:30:10.294Z,4.58
2018-09-28T11:32:39.014Z,3.27
2018-09-28T11:35:07.649Z,3.65
2018-09-28T11:37:36.592Z,3.10
2018-09-28T11:40:05.635Z,4.25
2018-09-28T11:42:34.436Z,4.65
2018-09-28T11:45:03.258Z,4.47
2018-09-28T11:47:32.129Z,5.73
2018-09-28T11:50:00.745Z,3.77
2018-09-28T11:52:29.482Z,4.20
2018-09-28T11:54:58.261Z,6.17
2018-09-28T11:57:27.203Z,4.13
2018-09-28T11:59:56.006Z,3.90
2018-09-28T12:02:24.720Z,4.80
2018-09-28T12:04:53.462Z,3.33
2018-09-28T12:07:22.146Z,3.10
2018-09-28T12:09:50.931Z,4.10
2018-09-28T12:12:19.658Z,2.97
2018-09-28T12:14:48.543Z,3.50
2018-09-28T12:17:17.362Z,3.73
2018-09-28T12:19:46.321Z,10.20
2018-09-28T12:22:15.024Z,4.53
2018-09-28T12:24:43.960Z,2.43
2018-09-28T12:27:12.708Z,3.23
2018-09-28T12:29:41.602Z,4.70
2018-09-28T12:32:10.352Z,2.50
2018-09-28T12:34:39.060Z,4.07
2018-09-28T12:37:08.059Z,3.50
2018-09-28T12:39:37.035Z,3.20
2018-09-28T12:42:05.792Z,6.30
2018-09-28T12:44:34.694Z,6.10
2018-09-28T12:47:03.408Z,2.87
2018-09-28T12:49:32.145Z,3.30
2018-09-28T12:52:00.883Z,4.50
2018-09-28T12:54:29.797Z,5.43
2018-09-28T12:56:58.481Z,4.33
2018-09-28T12:59:27.198Z,4.67
2018-09-28T13:01:56.031Z,4.47
2018-09-28T13:04:24.838Z,3.57
2018-09-28T13:06:53.815Z,4.97
2018-09-28T13:09:22.940Z,5.57
2018-09-28T13:11:51.726Z,4.63
2018-09-28T13:14:20.501Z,5.77
2018-09-28T13:16:49.220Z,4.30
2018-09-28T13:19:18.067Z,3.23
2018-09-28T13:21:46.883Z,4.23
2018-09-28T13:24:15.660Z,3.43
2018-09-28T13:26:44.578Z,6.03
2018-09-28T13:29:13.337Z,4.10
2018-09-28T13:31:42.412Z,4.90
2018-09-28T13:34:11.051Z,4.53
2018-09-28T13:36:40.113Z,8.80
2018-09-28T13:39:09.452Z,4.33
2018-09-28T13:41:38.397Z,5.30
2018-09-28T13:44:07.187Z,4.73
2018-09-28T13:46:36.070Z,3.20
2018-09-28T13:49:04.865Z,3.80
2018-09-28T13:51:33.569Z,3.70
2018-09-28T13:54:02.238Z,5.20
2018-09-28T13:56:31.206Z,3.93
2018-09-28T13:58:59.608Z,4.30
2018-09-28T14:01:28.373Z,4.90
2018-09-28T14:03:57.097Z,3.50
2018-09-28T14:06:25.829Z,3.83
2018-09-28T14:08:54.654Z,6.83
2018-09-28T14:11:23.052Z,5.40
2018-09-28T14:13:51.503Z,3.77
2018-09-28T14:16:20.790Z,4.17
2018-09-28T14:18:49.842Z,3.47
2018-09-28T14:21:18.259Z,4.37
2018-09-28T14:23:47.029Z,4.40
2018-09-28T14:26:16.042Z,4.37
2018-09-28T14:28:44.529Z,2.93
2018-09-28T14:31:12.996Z,4.13
2018-09-28T14:33:41.451Z,6.23
2018-09-28T14:36:09.891Z,3.27
2018-09-28T14:38:38.601Z,3.53
2018-09-28T14:41:07.074Z,4.30
2018-09-28T14:43:35.691Z,2.60
2018-09-28T14:46:04.619Z,6.27
2018-09-28T14:48:33.289Z,2.33
2018-09-28T14:51:01.976Z,4.83
2018-09-28T14:53:30.755Z,2.83
2018-09-28T14:55:59.161Z,3.10
2018-09-28T14:58:27.727Z,5.63
2018-09-28T15:00:56.656Z,2.70
2018-09-28T15:03:25.296Z,1.83
2018-09-28T15:05:54.380Z,5.27
2018-09-28T15:08:23.071Z,4.13
2018-09-28T15:10:51.841Z,5.73
2018-09-28T15:13:20.535Z,6.53
2018-09-28T15:15:49.301Z,2.80
2018-09-28T15:18:17.802Z,1.97
2018-09-28T15:20:46.244Z,2.60
2018-09-28T15:23:15.004Z,5.33
2018-09-28T15:25:43.748Z,2.60
2018-09-28T15:28:12.690Z,5.10
2018-09-28T15:30:41.405Z,4.80
2018-09-28T15:33:09.961Z,3.27
2018-09-28T15:35:38.661Z,4.77
2018-09-28T15:38:07.345Z,6.77
2018-09-28T15:40:36.088Z,5.10
2018-09-28T15:43:04.865Z,3.17
2018-09-28T15:45:34.254Z,5.90
2018-09-28T15:48:02.828Z,3.80
2018-09-28T15:50:31.550Z,2.93
2018-09-28T15:53:00.926Z,16.00
2018-09-28T15:55:29.346Z,4.57
2018-09-28T15:57:58.003Z,5.50
2018-09-28T16:00:26.774Z,4.23
2018-09-28T16:02:55.683Z,3.63
2018-09-28T16:05:24.608Z,3.23
2018-09-28T16:07:53.359Z,2.43
2018-09-28T16:10:22.276Z,5.60
2018-09-28T16:12:50.925Z,2.53
2018-09-28T16:15:19.748Z,2.73
2018-09-28T16:17:48.618Z,5.87
2018-09-28T16:20:17.632Z,5.50
2018-09-28T16:22:46.302Z,6.27
2018-09-28T16:25:15.005Z,4.73
2018-09-28T16:27:43.618Z,5.23
2018-09-28T16:30:12.357Z,3.87
2018-09-28T16:32:40.836Z,8.97
2018-09-28T16:35:09.741Z,3.70
2018-09-28T16:37:38.633Z,2.93
2018-09-28T16:40:07.524Z,6.70
2018-09-28T16:42:36.221Z,4.60
2018-09-28T16:45:04.903Z,5.60
2018-09-28T16:47:33.737Z,5.33
2018-09-28T16:50:02.509Z,13.10
2018-09-28T16:52:31.507Z,5.20
2018-09-28T16:55:00.086Z,5.67
2018-09-28T16:57:28.613Z,4.17
2018-09-28T16:59:57.410Z,4.23
2018-09-28T17:02:25.829Z,3.53
2018-09-28T17:04:54.288Z,4.17
2018-09-28T17:07:22.719Z,5.80
2018-09-28T17:09:51.100Z,6.97
2018-09-28T17:12:19.701Z,3.77
2018-09-28T17:14:48.140Z,7.13
2018-09-28T17:17:17.184Z,4.40
2018-09-28T17:19:46.069Z,3.37
2018-09-28T17:22:14.614Z,3.00
2018-09-28T17:24:42.975Z,5.60
2018-09-28T17:27:11.340Z,4.63
2018-09-28T17:29:39.771Z,3.77
2018-09-28T17:32:08.683Z,4.87
2018-09-28T17:34:37.568Z,8.53
2018-09-28T17:37:06.619Z,4.37
2018-09-28T17:39:35.559Z,3.97
2018-09-28T17:42:04.416Z,5.97
2018-09-28T17:44:33.220Z,6.20
2018-09-28T17:47:01.949Z,5.27
2018-09-28T17:49:30.634Z,4.80
2018-09-28T17:52:00.300Z,4.10
2018-09-28T17:54:29.174Z,7.47
2018-09-28T17:56:57.875Z,4.87
2018-09-28T17:59:26.491Z,6.87
2018-09-28T18:01:55.205Z,5.57
2018-09-28T18:04:24.152Z,7.00
2018-09-28T18:06:53.839Z,10.57
2018-09-28T18:09:22.713Z,5.80
2018-09-28T18:11:51.624Z,5.67
2018-09-28T18:14:20.470Z,9.17
2018-09-28T18:16:49.422Z,5.63
2018-09-28T18:19:18.237Z,7.73
2018-09-28T18:21:46.843Z,8.40
2018-09-28T18:24:15.682Z,3.17
2018-09-28T18:26:44.484Z,10.03
2018-09-28T18:29:13.145Z,8.07
2018-09-28T18:31:44.916Z,8.40
2018-09-28T18:34:14.335Z,9.90
2018-09-28T18:36:43.015Z,6.27
2018-09-28T18:39:11.849Z,6.07
2018-09-28T18:41:40.878Z,6.97
2018-09-28T18:44:09.612Z,5.60
2018-09-28T18:46:38.644Z,4.40
2018-09-28T18:49:07.451Z,4.87
2018-09-28T18:51:36.342Z,8.53
2018-09-28T18:54:05.230Z,9.10
2018-09-28T18:56:33.986Z,10.13
2018-09-28T18:59:02.905Z,9.50
2018-09-28T19:01:31.629Z,14.17
2018-09-28T19:04:00.357Z,17.80
2018-09-28T19:06:28.805Z,23.23
2018-09-28T19:08:57.607Z,28.13
2018-09-28T19:11:26.189Z,35.27
2018-09-28T19:13:54.899Z,35.47
2018-09-28T19:16:23.589Z,32.07
2018-09-28T19:18:52.605Z,27.93
2018-09-28T19:21:21.301Z,24.87
2018-09-28T19:23:50.291Z,19.50
2018-09-28T19:26:18.855Z,15.60
2018-09-28T19:28:47.611Z,12.17
2018-09-28T19:31:16.622Z,16.57
2018-09-28T19:33:45.303Z,18.70
2018-09-28T19:36:13.741Z,14.10
2018-09-28T19:38:42.208Z,17.65
2018-09-28T19:41:10.658Z,18.87
2018-09-28T19:43:39.645Z,16.93
2018-09-28T19:46:08.196Z,20.57
2018-09-28T19:48:36.549Z,17.00
2018-09-28T19:51:05.036Z,12.00
2018-09-28T19:53:33.558Z,14.97
2018-09-28T19:56:02.355Z,11.77
2018-09-28T19:58:30.988Z,12.58
2018-09-28T20:00:59.946Z,10.88
2018-09-28T20:03:28.703Z,11.23
2018-09-28T20:05:57.512Z,11.50
2018-09-28T20:08:26.204Z,9.33
2018-09-28T20:10:54.970Z,8.80
2018-09-28T20:13:29.303Z,8.87
2018-09-28T20:15:57.731Z,12.33
2018-09-28T20:18:26.149Z,10.67
2018-09-28T20:20:55.031Z,17.90
2018-09-28T20:23:23.499Z,10.03
2018-09-28T20:25:51.915Z,10.83
2018-09-28T20:28:20.680Z,10.43
2018-09-28T20:30:49.578Z,9.90
2018-09-28T20:33:18.479Z,11.57
2018-09-28T20:35:47.241Z,10.30
2018-09-28T20:38:16.050Z,8.50
2018-09-28T20:40:45.034Z,10.43
2018-09-28T20:43:13.686Z,10.87
2018-09-28T20:45:42.452Z,42.67
2018-09-28T20:48:11.157Z,35.30
2018-09-28T20:50:40.196Z,10.60
2018-09-28T20:53:08.970Z,7.83
2018-09-28T20:55:37.976Z,10.97
2018-09-28T20:58:06.829Z,11.43
2018-09-28T21:00:35.799Z,9.50
2018-09-28T21:03:04.472Z,11.27
2018-09-28T21:05:33.417Z,11.20
2018-09-28T21:08:02.431Z,9.57
2018-09-28T21:10:31.164Z,7.33
2018-09-28T21:13:00.209Z,6.13
2018-09-28T21:15:29.072Z,9.13
2018-09-28T21:17:57.981Z,6.80
2018-09-28T21:20:27.161Z,6.50
2018-09-28T21:22:56.025Z,6.73
2018-09-28T21:25:24.844Z,8.77
2018-09-28T21:27:53.655Z,11.43
2018-09-28T21:30:22.635Z,7.23
2018-09-28T21:32:51.811Z,6.27
2018-09-28T21:35:20.528Z,6.87
2018-09-28T21:37:49.709Z,6.67
2018-09-28T21:40:19.318Z,5.67
2018-09-28T21:42:49.627Z,19.30
2018-09-28T21:45:18.406Z,11.87
2018-09-28T21:47:48.103Z,7.03
2018-09-28T21:50:19.601Z,6.50
2018-09-28T21:52:52.984Z,10.43
2018-09-28T21:55:22.295Z,5.87
2018-09-28T21:57:51.498Z,4.70
2018-09-28T22:00:20.447Z,7.30
2018-09-28T22:02:49.393Z,9.77
2018-09-28T22:05:18.550Z,10.27
2018-09-28T22:07:48.897Z,8.00
2018-09-28T22:10:17.889Z,7.03
2018-09-28T22:12:46.984Z,6.33
2018-09-28T22:15:16.078Z,6.47
2018-09-28T22:17:44.887Z,7.53
2018-09-28T22:20:14.016Z,10.97
2018-09-28T22:22:42.799Z,7.77
2018-09-28T22:25:11.717Z,8.67
2018-09-28T22:27:40.516Z,6.27
2018-09-28T22:30:09.435Z,6.87
2018-09-28T22:32:38.207Z,3.93
2018-09-28T22:35:07.185Z,8.27
2018-09-28T22:37:36.201Z,8.07
2018-09-28T22:40:05.108Z,6.17
2018-09-28T22:42:33.862Z,5.87
2018-09-28T22:45:02.671Z,5.60
2018-09-28T22:47:31.576Z,9.13
2018-09-28T22:50:00.318Z,7.47
2018-09-28T22:52:29.320Z,7.03
2018-09-28T22:54:58.167Z,6.63
2018-09-28T22:57:27.098Z,5.33
2018-09-28T22:59:57.088Z,7.80
2018-09-28T23:02:25.953Z,5.77
2018-09-28T23:04:54.801Z,5.50
2018-09-28T23:07:23.423Z,6.87
2018-09-28T23:09:52.228Z,9.63
2018-09-28T23:12:21.292Z,7.93
2018-09-28T23:14:50.037Z,8.27
2018-09-28T23:17:18.944Z,5.53
2018-09-28T23:19:47.616Z,12.63
2018-09-28T23:22:16.425Z,8.80
2018-09-28T23:24:45.512Z,9.10
2018-09-28T23:27:14.501Z,8.87
2018-09-28T23:29:43.173Z,7.47
2018-09-28T23:32:12.034Z,7.63
2018-09-28T23:34:40.743Z,8.00
2018-09-28T23:37:09.762Z,6.73
2018-09-28T23:39:38.625Z,7.43
2018-09-28T23:42:07.408Z,6.43
2018-09-28T23:44:36.204Z,6.57
2018-09-28T23:47:05.421Z,13.03
2018-09-28T23:49:34.112Z,11.60
2018-09-28T23:52:03.087Z,15.13
2018-09-28T23:54:32.202Z,9.90
2018-09-28T23:57:01.193Z,6.30
2018-09-28T23:59:30.134Z,7.90
